Flight Track Log - Related Links

Times and Time Zones

All times are in EDT time to prevent confusion due to time zone crossing. See the UAL235 flight status page for this flight to view local times or setup timezone preferences in your user account.


Time Position Orientation Groundspeed Altitude Reporting Facility
EDT Latitude Longitude Course Direction KTS MPH feet Rate Location/Type
Sun 05:48:52 PM 39.8333 -104.7667 255° West 197 227 7,000  Level Denver TRACON
Sun 05:49:52 PM 39.8167 -104.8500 255° West 246 283 8,800 1,655 Climbing Denver TRACON
Sun 05:50:19 PM 39.8047 -104.8861 247° West 247 284 9,400 2,659 Climbing Denver Center
Sun 05:51:20 PM 39.7767 -104.9942 251° West 288 331 12,700 3,073 Climbing Denver Center
Sun 05:52:00 PM 39.6465 -105.3229 249° West  Level FlightAware Approximate
Sun 05:52:22 PM 39.7378 -105.0872 242° Southwest 297 342 15,700  Level Denver Center
Sun 05:53:00 PM 39.5979 -105.4494 241° Southwest  Level FlightAware Approximate
Sun 05:53:24 PM 39.6911 -105.1569 229° Southwest 302 348 17,700  Level Denver Center
Sun 05:54:00 PM 39.5574 -105.5799 255° West  Level FlightAware Approximate
Sun 05:54:26 PM 39.6264 -105.2589 231° Southwest 290 334 21,400  Level Denver Center
Sun 05:55:28 PM 39.6378 -105.3697 278° West 323 372 22,500 1,000 Climbing Denver Center
Sun 05:57:00 PM 39.5611 -105.5614 255° West  Level FlightAware Approximate
Sun 05:57:44 PM 39.5522 -105.6219 255° West 382 440 24,700  Level Denver Center
Sun 05:58:46 PM 39.5078 -105.7775 250° West 395 455 26,600 1,742 Climbing Denver Center
Sun 05:59:48 PM 39.4717 -105.9153 251° West 399 459 28,300 1,463 Climbing Denver Center
Sun 06:00:49 PM 39.4375 -106.0325 249° West 411 473 29,600 1,268 Climbing Denver Center
Sun 06:01:51 PM 39.3908 -106.2025 250° West 426 490 30,900 1,403 Climbing Denver Center
Sun 06:02:53 PM 39.3500 -106.3406 249° West 430 495 32,500 1,548 Climbing Denver Center
Sun 06:03:55 PM 39.3053 -106.5000 250° West 424 488 34,100 1,355 Climbing Denver Center
Sun 06:04:57 PM 39.2658 -106.6369 250° West 424 488 35,300 919 Climbing Denver Center
Sun 06:05:59 PM 39.2039 -106.7825 241° Southwest 415 478 36,000 339 Climbing Denver Center
Sun 06:07:01 PM 39.1308 -106.8978 231° Southwest 426 490 36,000  Level Denver Center
Sun 06:08:02 PM 39.0458 -107.0308 231° Southwest 429 494 36,000  Level Denver Center
Sun 06:09:04 PM 38.9744 -107.1453 231° Southwest 428 493 36,000  Level Denver Center
Sun 06:10:06 PM 38.9011 -107.2606 231° Southwest 432 497 36,000  Level Denver Center
Sun 06:11:08 PM 38.8153 -107.3944 231° Southwest 433 498 36,000  Level Denver Center
Sun 06:12:10 PM 38.7442 -107.5061 231° Southwest 426 490 36,000 -48 Level Denver Center
Sun 06:13:12 PM 38.6592 -107.6375 230° Southwest 427 491 35,900  Descending Denver Center
Sun 06:14:14 PM 38.5872 -107.7497 231° Southwest 426 490 36,000 48 Climbing Denver Center
Sun 06:15:16 PM 38.5025 -107.8789 230° Southwest 425 489 36,000  Level Denver Center
Sun 06:16:18 PM 38.4311 -107.9897 231° Southwest 423 487 36,000  Level Denver Center
Sun 06:17:19 PM 38.3464 -108.1211 231° Southwest 426 490 36,000  Level Denver Center
Sun 06:18:21 PM 38.2856 -108.2136 230° Southwest 427 491 36,000  Level Denver Center
Sun 06:19:23 PM 38.2003 -108.3433 230° Southwest 428 493 36,000  Level Denver Center
Sun 06:20:25 PM 38.1136 -108.4742 230° Southwest 430 495 36,000  Level Denver Center
Sun 06:21:27 PM 38.0381 -108.5878 230° Southwest 427 491 36,000  Level Denver Center
Sun 06:22:29 PM 37.9528 -108.7156 230° Southwest 425 489 36,000  Level Denver Center
Sun 06:23:31 PM 37.8786 -108.8272 230° Southwest 430 495 36,000  Level Denver Center
Sun 06:24:33 PM 37.8067 -108.9378 231° Southwest 426 490 36,000  Level Denver Center
Sun 06:25:34 PM 37.7408 -109.0828 240° Southwest 424 488 36,000  Level Denver Center
Sun 06:26:36 PM 37.6861 -109.2069 241° Southwest 423 487 36,000  Level Denver Center
Sun 06:27:38 PM 37.6217 -109.3525 241° Southwest 425 489 36,000  Level Denver Center
Sun 06:28:40 PM 37.5656 -109.4772 240° Southwest 427 491 36,000  Level Denver Center
Sun 06:29:42 PM 37.5006 -109.6219 241° Southwest 425 489 36,000  Level Denver Center
Sun 06:30:44 PM 37.4439 -109.7469 240° Southwest 428 493 36,000  Level Denver Center
Sun 06:31:46 PM 37.3781 -109.8919 240° Southwest 430 495 36,000  Level Denver Center
Sun 06:32:48 PM 37.3231 -110.0150 241° Southwest 424 488 36,000  Level Denver Center
Sun 06:33:49 PM 37.2567 -110.1586 240° Southwest 425 489 36,000  Level Denver Center
Sun 06:34:51 PM 37.1956 -110.2903 240° Southwest 426 490 36,000  Level Denver Center
Sun 06:35:53 PM 37.1381 -110.4197 241° Southwest 426 490 36,000  Level Denver Center
Sun 06:36:55 PM 37.0778 -110.5475 239° Southwest 426 490 36,000  Level Denver Center
Sun 06:37:57 PM 37.0164 -110.6792 240° Southwest 432 497 36,000  Level Denver Center
Sun 06:38:58 PM 36.9556 -110.8094 240° Southwest 433 498 36,000  Level Denver Center
Sun 06:40:00 PM 36.8950 -110.9375 239° Southwest 429 494 36,000  Level Denver Center
Sun 06:41:02 PM 36.8344 -111.0683 240° Southwest 432 497 36,000  Level Denver Center
Sun 06:42:04 PM 36.7611 -111.2225 239° Southwest 431 496 36,000  Level Denver Center
Sun 06:43:05 PM 36.6992 -111.3539 240° Southwest 436 502 36,000  Level Denver Center
Sun 06:44:07 PM 36.6358 -111.4850 239° Southwest 438 504 36,000  Level Denver Center
Sun 06:45:09 PM 36.5739 -111.6153 239° Southwest 438 504 36,000  Level Denver Center
Sun 06:46:11 PM 36.5111 -111.7456 239° Southwest 438 504 36,000  Level Denver Center
Sun 06:47:12 PM 36.4478 -111.8775 239° Southwest 441 507 36,000  Level Denver Center
Sun 06:48:02 PM 36.3986 -111.9842 240° Southwest 440 506 36,000  Level Los Angeles Center
Sun 06:49:04 PM 36.3433 -112.1192 243° Southwest 438 504 36,000  Level Los Angeles Center
Sun 06:50:06 PM 36.2767 -112.2797 243° Southwest 437 503 36,000  Level Los Angeles Center
Sun 06:51:08 PM 36.2206 -112.4125 242° Southwest 435 501 36,000  Level Los Angeles Center
Sun 06:52:10 PM 36.1650 -112.5447 243° Southwest 433 498 36,000  Level Los Angeles Center
Sun 06:53:12 PM 36.1089 -112.6781 243° Southwest 435 501 36,000  Level Los Angeles Center
Sun 06:54:14 PM 36.0531 -112.8108 243° Southwest 436 502 36,000  Level Los Angeles Center
Sun 06:55:16 PM 35.9956 -112.9458 242° Southwest 441 507 36,000  Level Los Angeles Center
Sun 06:56:18 PM 35.9367 -113.0842 242° Southwest 442 509 36,000  Level Los Angeles Center
Sun 06:57:20 PM 35.8689 -113.2425 242° Southwest 441 507 36,000  Level Los Angeles Center
Sun 06:58:22 PM 35.8119 -113.3744 242° Southwest 442 509 36,000  Level Los Angeles Center
Sun 06:59:25 PM 35.7550 -113.5061 242° Southwest 442 509 36,000  Level Los Angeles Center
Sun 07:00:27 PM 35.6975 -113.6369 242° Southwest 441 507 36,000  Level Los Angeles Center
Sun 07:01:29 PM 35.6403 -113.7711 242° Southwest 444 511 36,000  Level Los Angeles Center
Sun 07:02:31 PM 35.5706 -113.9300 242° Southwest 444 511 36,000  Level Los Angeles Center
Sun 07:03:33 PM 35.5125 -114.0614 242° Southwest 444 511 36,000  Level Los Angeles Center
Sun 07:04:35 PM 35.4547 -114.1925 242° Southwest 442 509 36,000  Level Los Angeles Center
Sun 07:05:37 PM 35.3875 -114.3444 242° Southwest 439 505 36,000  Level Los Angeles Center
Sun 07:06:39 PM 35.3283 -114.4758 241° Southwest 439 505 36,000  Level Los Angeles Center
Sun 07:07:54 PM 35.2578 -114.6347 241° Southwest 441 507 36,000  Level Los Angeles Center
Sun 07:08:56 PM 35.1981 -114.7658 241° Southwest 441 507 36,000  Level Los Angeles Center
Sun 07:09:58 PM 35.1394 -114.8972 241° Southwest 439 505 36,000  Level Los Angeles Center
Sun 07:11:00 PM 35.0797 -115.0292 241° Southwest 441 507 36,000  Level Los Angeles Center
Sun 07:12:02 PM 35.0083 -115.1864 241° Southwest 440 506 36,000  Level Los Angeles Center
Sun 07:13:04 PM 34.9589 -115.2914 240° Southwest 442 509 36,000  Level Los Angeles Center
Sun 07:14:06 PM 34.8892 -115.4450 241° Southwest 436 502 36,000  Level Los Angeles Center
Sun 07:15:08 PM 34.8303 -115.5731 241° Southwest 434 499 36,000  Level Los Angeles Center
Sun 07:16:10 PM 34.7708 -115.7044 241° Southwest 437 503 36,000  Level Los Angeles Center
Sun 07:17:12 PM 34.7114 -115.8336 241° Southwest 437 503 36,000  Level Los Angeles Center
Sun 07:18:14 PM 34.6517 -115.9600 240° Southwest 435 501 36,000 -288 Level Los Angeles Center
Sun 07:19:17 PM 34.5925 -116.0883 241° Southwest 434 499 35,400 -1,344 Descending Los Angeles Center
Sun 07:20:19 PM 34.5206 -116.2414 240° Southwest 435 501 33,200 -2,081 Descending Los Angeles Center
Sun 07:21:21 PM 34.4597 -116.3703 240° Southwest 439 505 31,100 -2,032 Descending Los Angeles Center
Sun 07:22:23 PM 34.4003 -116.4950 240° Southwest 430 495 29,000 -2,081 Descending Los Angeles Center
Sun 07:23:25 PM 34.3403 -116.6217 240° Southwest 433 498 26,800 -2,129 Descending Los Angeles Center
Sun 07:24:27 PM 34.2733 -116.7625 240° Southwest 477 549 24,600 -2,177 Descending Los Angeles Center
Sun 07:25:29 PM 34.2078 -116.8978 240° Southwest 469 540 22,300 -2,371 Descending Los Angeles Center
Sun 07:26:31 PM 34.1336 -117.0522 240° Southwest 445 512 19,700 -2,571 Descending Los Angeles Center
Sun 07:27:28 PM 34.0833 -117.1667 242° Southwest 434 499 17,200 -2,051 Descending Southern California TRACON
Sun 07:28:28 PM 34.0500 -117.3000 253° West 395 455 15,700 -1,700 Descending Southern California TRACON
Sun 07:29:28 PM 34.0333 -117.4333 261° West 378 435 13,800 -1,650 Descending Southern California TRACON
Sun 07:30:28 PM 34.0167 -117.5500 260° West 377 434 12,400 -992 Descending Southern California TRACON
Sun 07:31:29 PM 34.0167 -117.6667 270° West 311 358 11,800 -1,289 Descending Southern California TRACON
Sun 07:32:29 PM 34.0000 -117.7667 259° West 301 346 9,800 -1,800 Descending Southern California TRACON
Sun 07:33:29 PM 33.9833 -117.8667 259° West 287 330 8,200 -1,600 Descending Southern California TRACON
Sun 07:34:29 PM 33.9833 -117.9667 270° West 287 330 6,600 -952 Descending Southern California TRACON
Sun 07:35:35 PM 33.9667 -118.0500 256° West 226 260 6,200 -762 Descending Southern California TRACON
Sun 07:36:35 PM 33.9667 -118.1167 270° West 185 213 5,000 -1,053 Descending Southern California TRACON
Sun 07:37:29 PM 33.9667 -118.1667 270° West 180 207 4,200 -987 Descending Southern California TRACON
Sun 07:37:54 PM 33.9581 -118.1822 236° Southwest 182 209 3,700 -1,172 Descending Los Angeles Center
Sun 07:38:56 PM 33.9525 -118.2369 263° West 172 198 2,500 -960 Descending Los Angeles Center
Sun 07:39:59 PM 33.9478 -118.2883 264° West 164 189 1,700 -762 Descending Los Angeles Center

Login

Don't have an account? Register now (free) for customized features, flight alerts, and more!